Time;durP1;ratioP1;P1;durP2;ratioP2;P2;SDS_P1;SDS_P2;PMS_P1;PMS_P2;Temp;Humidity;BMP_temperature;BMP_pressure;BME280_temperature;BME280_humidity;BME280_pressure;Samples;Min_cycle;Max_cycle;Signal;HPM_P1;HPM_P2
2022/08/26 00:00:55;;;;;;;20.25;9.00;;;;;;;20.13;58.22;100354.12;1744757;81;25519;-66
2022/08/26 00:03:22;;;;;;;14.50;8.23;;;;;;;20.10;58.33;100344.47;1732256;81;27562;-65
2022/08/26 00:05:50;;;;;;;12.88;7.65;;;;;;;20.07;58.47;100344.62;1721040;81;25743;-65
2022/08/26 00:08:18;;;;;;;14.75;7.90;;;;;;;20.05;58.54;100346.16;1716348;82;25826;-65
2022/08/26 00:10:45;;;;;;;18.30;7.60;;;;;;;20.02;58.72;100349.65;1763864;80;26033;-66
2022/08/26 00:13:11;;;;;;;13.83;7.75;;;;;;;19.98;58.74;100341.37;1749206;80;25390;-66
2022/08/26 00:15:39;;;;;;;16.10;7.33;;;;;;;19.94;58.86;100345.44;1749541;81;28186;-65
2022/08/26 00:18:06;;;;;;;17.55;7.90;;;;;;;19.90;59.10;100340.50;1747595;81;25733;-65
2022/08/26 00:20:34;;;;;;;12.47;7.85;;;;;;;19.87;59.38;100334.94;1761015;81;25416;-66
2022/08/26 00:23:01;;;;;;;13.25;7.53;;;;;;;19.85;59.46;100338.63;1748867;80;25650;-66
2022/08/26 00:25:28;;;;;;;14.63;7.42;;;;;;;19.82;59.76;100336.63;1748864;81;25836;-66
2022/08/26 00:27:56;;;;;;;16.67;7.22;;;;;;;19.78;59.80;100335.20;1759092;80;29678;-66
2022/08/26 00:30:27;;;;;;;16.85;8.35;;;;;;;19.74;59.85;100336.53;1719507;80;25409;-66
2022/08/26 00:32:55;;;;;;;12.82;6.97;;;;;;;19.71;60.15;100339.98;1744631;81;25670;-66
2022/08/26 00:35:23;;;;;;;16.90;7.12;;;;;;;19.67;60.37;100339.73;1730524;81;25614;-66
2022/08/26 00:37:50;;;;;;;13.03;7.20;;;;;;;19.63;60.34;100341.06;1731209;80;26188;-66
2022/08/26 00:40:22;;;;;;;12.05;7.10;;;;;;;19.57;60.39;100338.41;1763957;80;27472;-66
2022/08/26 00:42:48;;;;;;;14.33;8.25;;;;;;;19.52;60.79;100341.47;1756474;80;25397;-66
2022/08/26 00:45:15;;;;;;;14.87;7.10;;;;;;;19.49;60.83;100339.45;1760815;80;26328;-66
2022/08/26 00:47:56;;;;;;;17.05;7.22;;;;;;;19.45;61.03;100341.36;1721782;81;25683;-66
2022/08/26 00:50:28;;;;;;;18.82;7.80;;;;;;;19.40;60.94;100337.75;1742480;81;25771;-66
2022/08/26 00:52:57;;;;;;;10.70;6.83;;;;;;;19.35;60.81;100342.18;1775578;80;27478;-66
2022/08/26 00:55:32;;;;;;;11.15;7.60;;;;;;;19.30;61.23;100346.60;1770742;80;25735;-67
2022/08/26 00:58:00;;;;;;;13.78;7.42;;;;;;;19.24;60.94;100343.98;1766959;80;25468;-66
2022/08/26 01:00:30;;;;;;;13.38;7.17;;;;;;;19.20;61.30;100348.00;1755550;81;26053;-66
2022/08/26 01:03:00;;;;;;;15.23;7.30;;;;;;;19.15;61.24;100350.27;1749286;81;25656;-66
2022/08/26 01:05:28;;;;;;;13.38;7.03;;;;;;;19.10;61.44;100341.76;1732746;82;27523;-66
2022/08/26 01:07:54;;;;;;;15.60;6.92;;;;;;;19.07;61.28;100345.81;1745387;81;25803;-66
2022/08/26 01:10:25;;;;;;;15.83;7.80;;;;;;;19.00;61.71;100339.07;1742673;80;25769;-66
2022/08/26 01:12:56;;;;;;;11.50;7.53;;;;;;;18.99;61.60;100347.66;1755494;80;25643;-66
2022/08/26 01:15:27;;;;;;;12.65;6.92;;;;;;;18.94;61.79;100343.84;1762779;80;25688;-66
2022/08/26 01:17:54;;;;;;;16.60;7.78;;;;;;;18.90;62.10;100336.12;1751817;80;28150;-66
2022/08/26 01:20:57;;;;;;;12.55;6.97;;;;;;;18.84;62.21;100341.90;1717424;80;25537;-66
2022/08/26 01:23:28;;;;;;;10.75;6.92;;;;;;;18.81;62.03;100344.55;1749909;81;25461;-66
2022/08/26 01:25:59;;;;;;;13.93;6.97;;;;;;;18.76;62.20;100346.22;1752058;81;25719;-66
2022/08/26 01:28:30;;;;;;;12.93;7.72;;;;;;;18.71;62.29;100350.62;1777135;80;25411;-66
2022/08/26 01:30:59;;;;;;;15.32;7.12;;;;;;;18.67;62.38;100346.45;1767616;80;27432;-66
2022/08/26 01:33:31;;;;;;;13.23;6.80;;;;;;;18.64;62.66;100350.72;1751781;80;25454;-66
2022/08/26 01:35:57;;;;;;;14.95;8.78;;;;;;;18.62;62.85;100350.27;1777594;80;25570;-66
2022/08/26 01:38:24;;;;;;;15.93;8.30;;;;;;;18.61;63.21;100350.07;1759474;80;25785;-67
2022/08/26 01:40:50;;;;;;;13.90;8.08;;;;;;;18.61;63.49;100355.55;1764694;80;25439;-66
2022/08/26 01:43:24;;;;;;;12.18;6.60;;;;;;;18.57;63.38;100347.82;1763437;80;27674;-66
2022/08/26 01:45:53;;;;;;;13.58;7.08;;;;;;;18.55;63.52;100344.66;1731466;81;25539;-66
2022/08/26 01:48:25;;;;;;;14.20;6.70;;;;;;;18.53;63.63;100342.86;1747091;81;25351;-66
2022/08/26 01:50:53;;;;;;;17.00;7.75;;;;;;;18.50;63.49;100342.21;1736028;80;25999;-66
2022/08/26 01:53:22;;;;;;;19.40;8.33;;;;;;;18.47;63.54;100339.63;1766514;80;25495;-66
2022/08/26 01:55:52;;;;;;;11.15;6.83;;;;;;;18.45;63.61;100332.92;1765205;80;27447;-66
2022/08/26 01:58:27;;;;;;;11.08;7.05;;;;;;;18.40;63.63;100328.52;1764728;80;25741;-66
2022/08/26 02:00:53;;;;;;;8.83;6.05;;;;;;;18.38;63.85;100332.78;1745847;81;25622;-66
2022/08/26 02:03:21;;;;;;;9.85;6.37;;;;;;;18.35;63.78;100337.02;1743891;81;25812;-66
2022/08/26 02:06:02;;;;;;;12.60;6.60;;;;;;;18.32;63.79;100332.30;1765409;80;25670;-66
2022/08/26 02:08:34;;;;;;;14.23;7.10;;;;;;;18.27;63.88;100333.36;1750210;80;27738;-66
2022/08/26 02:11:01;;;;;;;12.98;7.17;;;;;;;18.23;63.93;100331.11;1742577;81;25624;-66
2022/08/26 02:13:30;;;;;;;14.53;7.08;;;;;;;18.20;63.98;100338.70;1746740;80;25883;-66
2022/08/26 02:15:59;;;;;;;14.38;7.12;;;;;;;18.17;64.00;100339.41;1753940;80;25558;-65
2022/08/26 02:18:29;;;;;;;11.85;6.62;;;;;;;18.15;64.03;100337.61;1775239;80;25372;-66
2022/08/26 02:20:56;;;;;;;13.50;7.03;;;;;;;18.13;64.47;100336.38;1716898;81;28303;-66
2022/08/26 02:23:23;;;;;;;18.73;7.15;;;;;;;18.11;64.32;100340.84;1742786;81;25382;-66
2022/08/26 02:25:57;;;;;;;13.90;6.90;;;;;;;18.08;64.40;100340.17;1778206;80;25688;-65
2022/08/26 02:28:27;;;;;;;19.52;7.90;;;;;;;18.05;64.53;100336.81;1747699;80;25518;-66
2022/08/26 02:30:53;;;;;;;13.18;7.20;;;;;;;18.04;64.72;100336.00;1748042;81;25619;-66
2022/08/26 02:33:19;;;;;;;12.07;7.20;;;;;;;18.02;64.89;100336.94;1739800;81;27559;-66
2022/08/26 02:35:46;;;;;;;15.85;7.62;;;;;;;18.01;64.89;100337.30;1725985;80;25701;-66
2022/08/26 02:38:13;;;;;;;10.75;6.42;;;;;;;18.00;65.06;100337.88;1757376;80;25481;-66
2022/08/26 02:40:42;;;;;;;12.47;6.85;;;;;;;18.00;65.19;100342.56;1756029;80;25512;-66
2022/08/26 02:43:08;;;;;;;;;;;;;;;17.99;65.27;100337.65;1740716;81;25805;-65
2022/08/26 02:45:35;;;;;;;14.15;6.83;;;;;;;17.99;65.81;100330.81;1744115;80;27620;-65
2022/08/26 02:48:12;;;;;;;10.20;6.95;;;;;;;17.98;65.54;100323.77;1742609;81;25959;-66
2022/08/26 02:50:40;;;;;;;13.43;6.47;;;;;;;17.98;65.57;100331.98;1733072;81;25723;-66
2022/08/26 02:53:07;;;;;;;14.80;6.20;;;;;;;17.99;65.73;100334.12;1736423;81;26272;-66
2022/08/26 02:55:35;;;;;;;12.07;6.28;;;;;;;17.99;65.67;100334.12;1765926;80;25800;-66
2022/08/26 02:58:02;;;;;;;15.28;7.25;;;;;;;17.97;65.63;100327.64;1750485;80;28019;-66
2022/08/26 03:00:30;;;;;;;11.10;6.10;;;;;;;17.95;65.72;100326.43;1728352;81;25605;-67
2022/08/26 03:02:58;;;;;;;13.22;6.42;;;;;;;17.92;65.78;100327.34;1743482;81;25755;-67
2022/08/26 03:05:24;;;;;;;12.20;6.42;;;;;;;17.92;65.76;100327.92;1742366;81;25749;-67
2022/08/26 03:07:51;;;;;;;16.75;6.92;;;;;;;17.90;65.82;100332.97;1734613;80;25371;-67
2022/08/26 03:10:18;;;;;;;16.37;7.25;;;;;;;17.89;65.95;100336.84;1660830;84;27297;-67
2022/08/26 03:12:45;;;;;;;14.07;7.03;;;;;;;17.86;65.91;100331.52;1657394;84;25847;-67
2022/08/26 03:15:15;;;;;;;13.05;6.55;;;;;;;17.84;65.89;100327.52;1678170;84;25580;-67
2022/08/26 03:17:42;;;;;;;18.67;7.10;;;;;;;17.82;66.04;100333.92;1661297;85;26478;-67
2022/08/26 03:20:10;;;;;;;11.53;6.70;;;;;;;17.80;66.11;100333.50;1636346;85;25869;-67
2022/08/26 03:22:38;;;;;;;10.20;6.58;;;;;;;17.76;66.01;100332.05;1626007;86;27631;-66
2022/08/26 03:25:09;;;;;;;12.15;6.42;;;;;;;17.73;66.16;100325.92;1620894;86;26105;-66
2022/08/26 03:27:35;;;;;;;13.55;6.58;;;;;;;17.72;66.31;100330.61;1646339;86;25507;-64
2022/08/26 03:32:48;;;;;;;9.50;6.85;;;;;;;17.67;66.48;100334.17;1657205;85;25512;-67
2022/08/26 03:35:15;;;;;;;9.95;6.20;;;;;;;17.63;66.40;100334.67;1720292;80;27494;-67
2022/08/26 03:37:42;;;;;;;14.38;6.78;;;;;;;17.60;66.45;100335.37;1734070;81;25845;-65
2022/08/26 03:40:10;;;;;;;11.48;6.87;;;;;;;17.58;66.58;100334.37;1715640;81;25479;-65
2022/08/26 03:42:40;;;;;;;11.57;7.22;;;;;;;17.54;66.68;100334.28;1751631;80;25539;-65
2022/08/26 03:45:10;;;;;;;14.33;6.60;;;;;;;17.53;66.87;100336.79;1749740;81;25786;-65
2022/08/26 03:47:38;;;;;;;17.15;7.42;;;;;;;17.50;66.88;100333.98;1773836;80;27410;-65
2022/08/26 03:50:13;;;;;;;15.83;6.70;;;;;;;17.48;66.95;100333.55;1730885;81;26103;-64
2022/08/26 03:52:41;;;;;;;12.75;6.80;;;;;;;17.46;66.94;100332.52;1716008;81;25766;-65
2022/08/26 03:55:09;;;;;;;14.25;7.72;;;;;;;17.43;67.00;100329.71;1723792;80;25473;-65
2022/08/26 03:57:35;;;;;;;12.78;6.85;;;;;;;17.40;67.20;100326.31;1770358;80;25804;-65
2022/08/26 04:00:06;;;;;;;13.05;6.80;;;;;;;17.38;67.33;100323.93;1751910;80;27621;-65
2022/08/26 04:02:33;;;;;;;14.75;6.62;;;;;;;17.35;67.50;100319.98;1756183;80;25745;-65
2022/08/26 04:04:59;;;;;;;12.37;6.35;;;;;;;17.34;67.49;100327.95;1762412;80;25488;-66
2022/08/26 04:07:25;;;;;;;12.70;6.60;;;;;;;17.33;67.64;100321.47;1717013;80;25534;-66
2022/08/26 04:09:56;;;;;;;11.93;6.87;;;;;;;17.31;67.77;100320.45;1768170;80;25418;-69
2022/08/26 04:12:24;;;;;;;10.90;6.30;;;;;;;17.31;68.04;100309.52;1776450;80;28157;-69
2022/08/26 04:14:52;;;;;;;13.13;6.80;;;;;;;17.31;68.21;100319.09;1764383;80;25743;-70
2022/08/26 04:17:19;;;;;;;10.58;6.25;;;;;;;17.34;68.33;100318.97;1730672;81;25475;-70
2022/08/26 04:19:46;;;;;;;12.60;6.20;;;;;;;17.35;68.56;100317.25;1746716;81;25827;-71
2022/08/26 04:22:12;;;;;;;14.63;7.08;;;;;;;17.38;68.66;100308.89;1750798;81;25420;-71
2022/08/26 04:24:38;;;;;;;19.82;7.37;;;;;;;17.42;68.90;100317.99;1744919;81;27394;-71
2022/08/26 04:27:09;;;;;;;15.10;7.53;;;;;;;17.45;69.06;100315.92;1723751;81;25565;-71
2022/08/26 04:29:37;;;;;;;16.82;6.78;;;;;;;17.51;69.22;100320.53;1705863;81;25482;-72
2022/08/26 04:32:04;;;;;;;13.45;7.10;;;;;;;17.55;69.30;100325.50;1738152;80;25452;-72
2022/08/26 04:34:31;;;;;;;14.93;7.10;;;;;;;17.59;69.33;100326.39;1691585;81;25440;-72
2022/08/26 04:36:58;;;;;;;17.57;7.80;;;;;;;17.65;69.43;100324.95;1697206;82;27199;-72
2022/08/26 04:39:26;;;;;;;16.73;8.20;;;;;;;17.69;69.32;100321.74;1736143;80;25397;-72
2022/08/26 04:41:55;;;;;;;12.13;6.87;;;;;;;17.74;69.08;100331.04;1741872;80;25766;-72
2022/08/26 04:44:24;;;;;;;11.73;6.83;;;;;;;17.80;69.05;100329.39;1729163;80;25841;-72
2022/08/26 04:46:51;;;;;;;;;;;;;;;17.85;69.02;100337.32;1729362;81;25659;-72
2022/08/26 04:49:20;;;;;;;13.18;6.72;;;;;;;17.90;69.13;100336.48;1732898;80;28098;-72
2022/08/26 04:51:51;;;;;;;14.68;6.33;;;;;;;17.93;68.75;100330.89;1734933;81;25755;-72
2022/08/26 04:54:15;;;;;;;18.48;6.95;;;;;;;17.98;68.67;100327.06;1710646;81;25419;-72
2022/08/26 04:56:46;;;;;;;21.45;7.28;;;;;;;18.04;68.60;100328.37;1704639;82;26057;-72
2022/08/26 04:59:16;;;;;;;12.28;6.53;;;;;;;18.10;68.28;100327.73;1717804;82;25444;-72
2022/08/26 05:01:50;;;;;;;10.93;6.15;;;;;;;18.16;68.31;100327.45;1726492;82;27498;-72
2022/08/26 05:04:19;;;;;;;9.60;7.00;;;;;;;18.22;68.08;100330.12;1702639;80;25676;-72
2022/08/26 05:06:47;;;;;;;11.57;6.87;;;;;;;18.29;68.08;100327.53;1727279;81;25462;-72
2022/08/26 05:09:17;;;;;;;16.50;7.12;;;;;;;18.38;67.97;100330.05;1745579;82;26187;-72
2022/08/26 05:11:44;;;;;;;14.65;7.03;;;;;;;18.44;67.94;100330.77;1721904;80;26108;-71
2022/08/26 05:14:11;;;;;;;18.40;9.50;;;;;;;18.55;68.07;100332.92;1710533;81;27537;-71
2022/08/26 05:16:37;;;;;;;19.90;11.30;;;;;;;18.64;68.19;100336.21;1744136;80;25818;-71
2022/08/26 05:19:05;;;;;;;16.70;7.22;;;;;;;18.74;68.18;100336.20;1750518;80;25706;-71
2022/08/26 05:21:32;;;;;;;10.88;7.05;;;;;;;18.82;68.13;100336.00;1755845;80;25528;-71
2022/08/26 05:23:59;;;;;;;13.72;6.80;;;;;;;18.93;68.26;100336.18;1780438;80;25554;-71
2022/08/26 05:26:28;;;;;;;15.35;6.85;;;;;;;19.03;68.11;100338.91;1757632;80;28209;-70
2022/08/26 05:28:55;;;;;;;;;;;;;;;19.12;67.97;100339.47;1750547;80;25931;-71
2022/08/26 05:31:26;;;;;;;15.45;7.53;;;;;;;19.22;68.24;100340.23;1737930;80;25710;-71
2022/08/26 05:33:54;;;;;;;15.78;6.62;;;;;;;19.31;68.03;100333.11;1734575;81;25854;-71
2022/08/26 05:36:22;;;;;;;12.63;6.75;;;;;;;19.43;68.03;100337.61;1750435;80;25904;-71
2022/08/26 05:38:49;;;;;;;12.05;6.60;;;;;;;19.53;68.01;100338.36;1736720;80;27624;-70
2022/08/26 05:41:27;;;;;;;14.23;7.70;;;;;;;19.65;68.11;100340.66;1759989;80;25767;-71
2022/08/26 05:43:57;;;;;;;12.63;7.67;;;;;;;19.78;68.10;100342.06;1759892;80;25720;-70
2022/08/26 05:46:23;;;;;;;15.75;9.60;;;;;;;19.92;68.01;100344.22;1754302;81;25681;-70
2022/08/26 05:48:50;;;;;;;12.90;7.03;;;;;;;20.08;68.07;100342.68;1745450;81;25535;-70
2022/08/26 05:51:17;;;;;;;13.60;6.33;;;;;;;20.23;67.87;100340.91;1739508;80;27540;-70
2022/08/26 05:53:43;;;;;;;12.03;6.28;;;;;;;20.36;67.08;100348.31;1779706;80;25775;-70
2022/08/26 05:56:11;;;;;;;9.78;5.75;;;;;;;20.49;66.40;100348.28;1781234;80;25676;-68
2022/08/26 05:58:40;;;;;;;9.43;6.15;;;;;;;20.63;66.28;100349.05;1778698;80;25592;-69
2022/08/26 06:01:15;;;;;;;10.90;6.40;;;;;;;20.80;65.97;100350.41;1754244;80;25773;-69
2022/08/26 06:03:45;;;;;;;12.47;6.55;;;;;;;21.04;65.61;100349.06;1710878;81;27508;-67
2022/08/26 06:06:19;;;;;;;11.43;5.78;;;;;;;21.29;65.20;100345.75;1728481;81;25742;-69
2022/08/26 06:08:46;;;;;;;10.00;6.12;;;;;;;21.53;64.89;100343.02;1742026;80;25517;-68
2022/08/26 06:11:16;;;;;;;14.80;6.30;;;;;;;21.76;64.34;100350.44;1743873;81;26058;-68
2022/08/26 06:13:43;;;;;;;9.85;6.05;;;;;;;22.01;63.75;100344.27;1748355;80;25663;-68
2022/08/26 06:16:14;;;;;;;14.15;5.90;;;;;;;22.25;63.19;100347.53;1711553;81;27362;-68
2022/08/26 06:18:44;;;;;;;11.03;5.95;;;;;;;22.47;61.91;100340.16;1756001;80;25827;-67
2022/08/26 06:21:27;;;;;;;10.80;6.25;;;;;;;22.73;61.58;100346.74;1772928;80;25669;-67
2022/08/26 06:26:54;;;;;;;15.03;8.10;;;;;;;23.23;60.13;100343.88;1729726;80;25551;-67
2022/08/26 06:29:24;;;;;;;15.25;6.50;;;;;;;23.53;59.74;100342.08;1727914;81;27167;-68
2022/08/26 06:31:51;;;;;;;14.35;6.22;;;;;;;23.80;59.00;100340.23;1745136;81;25798;-68
2022/08/26 06:34:18;;;;;;;9.98;5.97;;;;;;;24.03;57.98;100341.98;1738449;81;25719;-68
2022/08/26 06:36:46;;;;;;;11.33;5.87;;;;;;;24.27;57.86;100349.20;1730428;80;25816;-69
2022/08/26 06:39:17;;;;;;;12.45;6.10;;;;;;;24.53;56.87;100350.64;1724973;81;25413;-69
2022/08/26 06:41:44;;;;;;;14.40;5.90;;;;;;;24.77;56.32;100350.36;1732445;81;28407;-69
2022/08/26 06:44:13;;;;;;;10.78;5.70;;;;;;;25.04;55.53;100355.89;1732233;81;25726;-69
2022/08/26 06:46:41;;;;;;;13.10;5.65;;;;;;;25.30;55.10;100353.14;1720536;81;25694;-69
2022/08/26 06:49:09;;;;;;;16.43;6.30;;;;;;;25.56;54.52;100350.35;1727295;81;25848;-68
2022/08/26 06:51:38;;;;;;;11.27;6.03;;;;;;;25.81;53.97;100357.61;1722788;81;25560;-68
2022/08/26 06:54:06;;;;;;;14.23;6.78;;;;;;;26.06;53.75;100349.83;1731256;81;28180;-68
2022/08/26 06:56:38;;;;;;;15.72;6.37;;;;;;;26.34;53.25;100351.28;1742950;81;25741;-68
2022/08/26 06:59:06;;;;;;;16.80;6.45;;;;;;;26.60;53.00;100358.86;1736697;81;25740;-68
2022/08/26 07:01:37;;;;;;;15.13;6.70;;;;;;;26.90;51.92;100355.09;1728371;80;25535;-68
2022/08/26 07:04:06;;;;;;;13.60;6.47;;;;;;;27.13;51.53;100359.28;1754658;80;25669;-68
2022/08/26 07:06:39;;;;;;;;;;;;;;;27.41;50.97;100351.70;1727606;80;27673;-69
2022/08/26 07:09:08;;;;;;;16.30;6.33;;;;;;;27.68;50.05;100353.00;1731505;81;26385;-68
2022/08/26 07:11:37;;;;;;;11.90;6.20;;;;;;;27.95;49.75;100354.31;1735833;81;25656;-69
2022/08/26 07:14:05;;;;;;;18.48;6.17;;;;;;;28.24;49.33;100352.34;1722365;80;25859;-69
2022/08/26 07:16:33;;;;;;;9.55;5.90;;;;;;;28.53;48.88;100356.52;1744828;80;25467;-69
2022/08/26 07:18:59;;;;;;;15.32;8.60;;;;;;;28.78;48.13;100354.59;1745740;80;27503;-70
2022/08/26 07:21:26;;;;;;;15.60;6.58;;;;;;;28.97;47.50;100355.13;1744736;80;25668;-72
2022/08/26 07:23:55;;;;;;;12.30;5.72;;;;;;;29.15;47.18;100351.92;1764087;80;25738;-67
2022/08/26 07:26:25;;;;;;;13.28;6.35;;;;;;;29.40;46.93;100353.30;1747999;80;27716;-70
2022/08/26 07:28:55;;;;;;;14.87;6.60;;;;;;;29.65;46.84;100354.05;1740484;80;25870;-69
2022/08/26 07:31:25;;;;;;;11.30;6.55;;;;;;;29.79;47.14;100349.48;1758184;80;28079;-68
2022/08/26 07:33:52;;;;;;;15.70;6.78;;;;;;;29.93;45.96;100350.32;1722020;82;25466;-68
2022/08/26 07:36:19;;;;;;;12.05;6.35;;;;;;;30.09;45.96;100355.84;1755446;80;25862;-68
2022/08/26 07:38:47;;;;;;;14.85;6.45;;;;;;;30.19;45.22;100351.19;1782122;80;26031;-69
2022/08/26 07:41:17;;;;;;;16.07;7.17;;;;;;;30.23;45.08;100354.64;1753192;80;25434;-68
2022/08/26 07:43:44;;;;;;;11.80;6.42;;;;;;;30.29;44.53;100347.89;1736965;81;28248;-70
2022/08/26 07:46:18;;;;;;;12.28;6.60;;;;;;;30.33;44.37;100351.38;1726552;81;25428;-69
2022/08/26 07:48:40;;;;;;;11.57;6.60;;;;;;;30.37;44.80;100344.32;1722663;80;25681;-69
2022/08/26 07:51:06;;;;;;;16.52;6.15;;;;;;;30.33;44.45;100345.80;1750700;80;26446;-68
2022/08/26 07:53:34;;;;;;;11.28;5.95;;;;;;;30.32;44.44;100336.63;1736933;81;25437;-69
2022/08/26 07:56:05;;;;;;;13.35;6.55;;;;;;;30.34;44.71;100334.79;1736396;81;28156;-70
2022/08/26 07:58:32;;;;;;;10.53;5.83;;;;;;;30.50;44.07;100335.35;1731601;80;25824;-71
2022/08/26 08:00:58;;;;;;;9.58;6.30;;;;;;;30.63;44.33;100340.33;1700542;81;25745;-72
2022/08/26 08:03:25;;;;;;;19.15;6.70;;;;;;;30.73;44.41;100335.62;1716738;81;25810;-69
2022/08/26 08:05:51;;;;;;;12.95;6.03;;;;;;;30.75;43.83;100335.17;1739215;80;25917;-68
2022/08/26 08:08:18;;;;;;;13.55;6.58;;;;;;;30.79;43.40;100328.25;1742556;81;27497;-68
2022/08/26 08:10:45;;;;;;;16.05;5.80;;;;;;;30.90;43.50;100330.69;1736899;81;25666;-76
2022/08/26 08:13:13;;;;;;;11.30;6.17;;;;;;;31.03;43.65;100329.31;1701530;82;25760;-75
2022/08/26 08:15:39;;;;;;;11.90;6.12;;;;;;;31.11;43.31;100325.06;1735381;81;26121;-74
2022/08/26 08:18:06;;;;;;;12.85;6.45;;;;;;;31.26;43.64;100326.14;1740653;81;25697;-75
2022/08/26 08:20:34;;;;;;;12.30;7.20;;;;;;;31.36;43.65;100322.79;1727561;81;28041;-74
2022/08/26 08:23:03;;;;;;;18.25;6.65;;;;;;;31.47;42.96;100331.59;1739425;81;25700;-74
2022/08/26 08:25:30;;;;;;;;;;;;;;;31.73;43.18;100328.72;1736497;80;25841;-74
2022/08/26 08:27:56;;;;;;;14.65;6.28;;;;;;;31.91;41.92;100321.68;1740439;80;25671;-75
2022/08/26 08:30:23;;;;;;;15.58;6.40;;;;;;;32.22;41.51;100316.16;1745339;80;25569;-75
2022/08/26 08:32:51;;;;;;;13.60;5.53;;;;;;;32.22;41.51;100316.16;1734177;80;27497;-74
2022/08/26 08:35:25;;;;;;;11.53;5.87;;;;;;;32.27;41.11;100316.97;1751166;80;25445;-74
2022/08/26 08:37:52;;;;;;;9.33;5.78;;;;;;;32.48;40.58;100318.13;1775121;80;25833;-73
2022/08/26 08:40:17;;;;;;;10.32;5.50;;;;;;;32.53;39.75;100321.73;1751292;80;25745;-74
2022/08/26 08:42:57;;;;;;;16.02;6.28;;;;;;;32.73;39.30;100315.77;1767651;80;25608;-73
2022/08/26 08:45:49;;;;;;;9.55;5.62;;;;;;;32.80;39.14;100312.53;1756645;80;27541;-72
2022/08/26 08:48:21;;;;;;;11.18;6.17;;;;;;;33.03;37.65;100311.16;1760208;81;25643;-71
2022/08/26 08:51:09;;;;;;;20.15;6.22;;;;;;;33.22;36.73;100312.79;1749952;81;25840;-71
2022/08/26 08:53:41;;;;;;;9.55;5.95;;;;;;;33.22;36.73;100312.79;1735336;81;25406;-71
2022/08/26 08:56:13;;;;;;;17.37;6.87;;;;;;;33.27;36.45;100298.16;1757686;80;25637;-71
2022/08/26 08:58:56;;;;;;;11.03;5.67;;;;;;;33.49;36.37;100302.81;1753162;80;27988;-71
2022/08/26 09:01:45;;;;;;;11.93;5.60;;;;;;;33.62;36.19;100305.46;1695176;82;25953;-70
2022/08/26 09:04:43;;;;;;;13.28;5.60;;;;;;;33.77;35.45;100295.81;1706389;82;25776;-70
2022/08/26 09:07:20;;;;;;;12.68;5.72;;;;;;;34.01;35.12;100295.28;1640549;83;25790;-70
2022/08/26 09:09:56;;;;;;;11.63;5.97;;;;;;;34.19;34.31;100300.07;1667584;84;25450;-70
2022/08/26 09:12:27;;;;;;;10.08;5.78;;;;;;;34.22;33.90;100296.95;1609731;88;28022;-71
2022/08/26 09:15:01;;;;;;;9.80;5.60;;;;;;;34.23;33.67;100293.68;1604082;88;25810;-70
2022/08/26 09:17:51;;;;;;;9.93;5.62;;;;;;;34.44;33.75;100293.91;1637449;86;25788;-70
2022/08/26 09:20:55;;;;;;;9.83;5.35;;;;;;;34.49;33.26;100295.30;1601837;87;26287;-69
2022/08/26 09:23:22;;;;;;;8.63;5.65;;;;;;;34.57;32.85;100295.11;1610943;88;25492;-69
2022/08/26 09:25:53;;;;;;;17.42;6.83;;;;;;;34.85;33.09;100291.52;1605646;88;27459;-69
2022/08/26 09:28:23;;;;;;;15.10;5.67;;;;;;;35.25;32.56;100282.55;1610995;87;25792;-71
2022/08/26 09:31:04;;;;;;;10.03;5.22;;;;;;;35.53;31.76;100286.64;1634468;85;25478;-68
2022/08/26 09:33:31;;;;;;;9.05;6.00;;;;;;;35.65;31.53;100277.02;1665987;85;25732;-69
2022/08/26 09:36:37;;;;;;;9.15;5.22;;;;;;;35.88;31.47;100280.40;1668899;85;25702;-69
2022/08/26 09:39:25;;;;;;;7.05;4.97;;;;;;;36.12;30.92;100279.51;1662539;83;27379;-69
2022/08/26 09:42:14;;;;;;;13.78;5.28;;;;;;;36.34;30.78;100273.48;1613315;88;26701;-69
2022/08/26 09:45:02;;;;;;;12.45;5.05;;;;;;;36.47;30.07;100268.91;1623706;87;25911;-69
2022/08/26 09:47:48;;;;;;;10.47;5.30;;;;;;;36.44;29.76;100274.14;1629407;86;25722;-68
2022/08/26 09:50:50;;;;;;;12.80;5.85;;;;;;;36.56;29.73;100270.85;1588246;87;25792;-69
2022/08/26 09:53:24;;;;;;;11.28;4.78;;;;;;;36.59;29.23;100261.39;1611058;86;27682;-69
2022/08/26 09:56:11;;;;;;;10.38;5.03;;;;;;;36.79;28.79;100264.25;1594384;87;25893;-69
2022/08/26 09:58:40;;;;;;;13.75;5.15;;;;;;;37.09;28.93;100260.53;1662618;85;25910;-68
2022/08/26 10:01:15;;;;;;;10.75;5.08;;;;;;;37.36;28.33;100262.14;1673661;84;25532;-68
2022/08/26 10:03:43;;;;;;;9.08;4.83;;;;;;;37.53;28.49;100257.43;1667381;84;25709;-69
2022/08/26 10:06:20;;;;;;;10.50;5.40;;;;;;;37.79;27.74;100257.31;1645040;86;28133;-68
2022/08/26 10:08:52;;;;;;;9.58;5.22;;;;;;;37.99;27.42;100258.63;1635443;86;25651;-68
2022/08/26 10:11:26;;;;;;;13.58;5.33;;;;;;;38.34;27.28;100250.53;1643450;85;25469;-68
2022/08/26 10:14:20;;;;;;;17.90;5.97;;;;;;;38.59;26.87;100255.20;1655875;84;25719;-68
2022/08/26 10:16:55;;;;;;;7.35;5.40;;;;;;;38.78;26.79;100258.38;1640203;86;25915;-68
2022/08/26 10:19:27;;;;;;;9.30;5.17;;;;;;;38.93;26.01;100253.30;1678907;84;27498;-68
2022/08/26 10:22:02;;;;;;;13.35;5.53;;;;;;;38.99;26.31;100257.55;1703102;83;25821;-68
2022/08/26 10:24:46;;;;;;;12.53;5.62;;;;;;;38.99;25.67;100256.92;1712143;83;25872;-67
2022/08/26 10:27:37;;;;;;;8.80;5.22;;;;;;;38.95;25.04;100250.73;1698341;83;26112;-67
2022/08/26 10:30:09;;;;;;;8.95;5.35;;;;;;;38.80;25.45;100257.22;1706405;83;25699;-68
2022/08/26 10:32:43;;;;;;;11.93;5.62;;;;;;;38.72;25.53;100261.80;1701488;83;28300;-68
2022/08/26 10:35:15;;;;;;;7.65;5.72;;;;;;;38.78;25.51;100260.55;1708482;83;25831;-69
2022/08/26 10:37:58;;;;;;;12.40;5.42;;;;;;;38.93;25.11;100258.95;1666968;84;25953;-69
2022/08/26 10:40:44;;;;;;;9.83;5.83;;;;;;;39.12;25.25;100255.05;1682122;84;27710;-70
2022/08/26 10:43:19;;;;;;;10.90;5.50;;;;;;;39.22;25.29;100252.77;1675850;83;25825;-69
2022/08/26 10:46:02;;;;;;;7.85;5.87;;;;;;;39.31;24.92;100259.59;1686071;83;27356;-68
2022/08/26 10:48:47;;;;;;;12.05;5.45;;;;;;;39.39;24.81;100249.32;1674268;84;25744;-69
2022/08/26 10:51:19;;;;;;;10.78;5.75;;;;;;;39.43;24.47;100249.06;1688849;83;25719;-69
2022/08/26 10:53:56;;;;;;;11.78;5.70;;;;;;;39.44;24.46;100244.17;1709752;81;25836;-69
2022/08/26 10:56:47;;;;;;;10.32;4.80;;;;;;;39.49;24.25;100249.12;1744650;81;25657;-69
2022/08/26 10:59:57;;;;;;;12.23;5.45;;;;;;;39.69;24.23;100236.14;1714681;81;27321;-69
2022/08/26 11:02:44;;;;;;;9.53;5.35;;;;;;;39.94;23.75;100239.23;1725041;81;27140;-68
2022/08/26 11:05:22;;;;;;;8.63;5.63;;;;;;;40.02;23.88;100241.68;1732873;80;25900;-68
2022/08/26 11:07:55;;;;;;;12.70;5.05;;;;;;;40.12;23.29;100231.62;1710609;81;25632;-69
2022/08/26 11:10:26;;;;;;;8.85;5.70;;;;;;;40.11;23.00;100230.72;1702966;81;25854;-68
2022/08/26 11:13:05;;;;;;;11.10;4.90;;;;;;;40.02;23.02;100228.94;1745770;80;27312;-68
2022/08/26 11:15:43;;;;;;;9.58;5.45;;;;;;;40.03;23.16;100232.53;1756264;80;25720;-68
2022/08/26 11:18:14;;;;;;;10.32;6.45;;;;;;;40.03;23.23;100223.38;1742625;81;25602;-69
2022/08/26 11:20:46;;;;;;;10.43;5.58;;;;;;;40.09;23.13;100221.98;1766754;80;25585;-68
2022/08/26 11:23:25;;;;;;;8.35;5.05;;;;;;;40.22;22.78;100212.92;1757884;80;25637;-67
2022/08/26 11:26:16;;;;;;;9.90;5.08;;;;;;;40.40;22.60;100210.97;1772090;80;27657;-68
2022/08/26 11:28:47;;;;;;;10.65;5.15;;;;;;;40.43;21.73;100209.94;1772367;80;26326;-68
2022/08/26 11:31:29;;;;;;;11.68;5.35;;;;;;;40.41;21.75;100207.52;1756754;80;25475;-67
2022/08/26 11:34:02;;;;;;;8.35;5.05;;;;;;;40.56;21.27;100199.47;1752232;80;25670;-68
2022/08/26 11:36:47;;;;;;;10.68;5.72;;;;;;;40.62;21.31;100199.44;1756149;80;25797;-68
2022/08/26 11:39:27;;;;;;;13.90;5.53;;;;;;;40.73;21.72;100197.19;1747430;81;28012;-69
2022/08/26 11:41:58;;;;;;;6.87;5.80;;;;;;;40.80;21.16;100198.83;1742089;80;25830;-69
2022/08/26 11:44:40;;;;;;;12.58;5.97;;;;;;;40.59;20.89;100194.80;1693328;81;25664;-69